Time;durP1;ratioP1;P1;durP2;ratioP2;P2;SDS_P1;SDS_P2;PMS_P1;PMS_P2;Temp;Humidity;BMP_temperature;BMP_pressure;BME280_temperature;BME280_humidity;BME280_pressure;Samples;Min_cycle;Max_cycle;Signal;HPM_P1;HPM_P2
2022/11/14 00:00:06;;;;;;;3.33;2.80;;;;;;;15.96;47.78;93714.09;5062458;28;20514;-84
2022/11/14 00:02:32;;;;;;;3.85;2.90;;;;;;;15.98;47.23;93713.59;5073947;28;20086;-84
2022/11/14 00:04:57;;;;;;;3.38;2.67;;;;;;;16.02;47.41;93719.56;5089695;28;20028;-84
2022/11/14 00:07:22;;;;;;;2.83;2.30;;;;;;;15.99;47.82;93720.56;5092279;28;20035;-84
2022/11/14 00:09:48;;;;;;;3.03;2.45;;;;;;;15.98;47.35;93710.88;5075594;28;20048;-84
2022/11/14 00:12:13;;;;;;;2.55;2.25;;;;;;;15.97;47.79;93734.66;5101984;27;20350;-84
2022/11/14 00:14:39;;;;;;;2.42;2.10;;;;;;;15.97;47.69;93723.00;5086565;28;20487;-84
2022/11/14 00:17:04;;;;;;;2.72;2.42;;;;;;;15.98;47.31;93722.53;5057502;28;20460;-85
2022/11/14 00:19:30;;;;;;;4.45;3.20;;;;;;;15.97;47.63;93723.75;5105290;28;20494;-84
2022/11/14 00:21:56;;;;;;;3.97;2.50;;;;;;;16.00;47.73;93739.16;5075934;28;20055;-85
2022/11/14 00:24:21;;;;;;;3.47;2.67;;;;;;;15.99;47.50;93739.63;5085186;28;20071;-84
2022/11/14 00:26:46;;;;;;;3.08;2.40;;;;;;;15.98;47.81;93727.22;5083169;28;20432;-84
2022/11/14 00:29:15;;;;;;;3.40;2.72;;;;;;;15.98;47.50;93736.16;5068919;28;20044;-84
2022/11/14 00:31:41;;;;;;;3.85;2.65;;;;;;;15.97;47.70;93731.19;5095736;28;20040;-84
2022/11/14 00:34:06;;;;;;;2.85;2.13;;;;;;;15.96;47.44;93719.53;5081239;28;20043;-84
2022/11/14 00:36:32;;;;;;;3.10;2.45;;;;;;;15.97;47.36;93726.50;5080255;28;20036;-84
2022/11/14 00:38:57;;;;;;;3.65;2.47;;;;;;;16.00;47.58;93722.78;5100765;28;20394;-84
2022/11/14 00:41:22;;;;;;;2.88;2.28;;;;;;;15.96;47.38;93722.28;5108203;28;20844;-84
2022/11/14 00:43:48;;;;;;;2.20;2.00;;;;;;;15.99;47.71;93728.72;5091934;28;20076;-84
2022/11/14 00:46:13;;;;;;;4.10;2.90;;;;;;;15.97;47.31;93731.94;5107988;28;20497;-84
2022/11/14 00:48:39;;;;;;;2.20;2.00;;;;;;;15.97;47.82;93731.19;5082379;28;20036;-85
2022/11/14 00:51:04;;;;;;;3.00;2.60;;;;;;;15.97;47.56;93723.75;5107473;28;20394;-84
2022/11/14 00:53:29;;;;;;;2.85;2.40;;;;;;;15.97;47.37;93728.47;5070939;28;20032;-84
2022/11/14 00:55:55;;;;;;;2.80;2.13;;;;;;;15.94;47.87;93732.91;5082705;28;20046;-84
2022/11/14 00:58:20;;;;;;;2.83;2.50;;;;;;;15.98;47.37;93717.06;5108226;28;20047;-84
2022/11/14 01:00:46;;;;;;;3.58;2.50;;;;;;;15.96;47.57;93711.38;5108144;28;20398;-84
2022/11/14 01:03:11;;;;;;;3.30;2.30;;;;;;;15.97;47.61;93714.84;5107974;28;20039;-84
2022/11/14 01:05:43;;;;;;;2.75;2.15;;;;;;;15.96;47.71;93710.63;5075801;28;20047;-84
2022/11/14 01:08:12;;;;;;;2.75;2.22;;;;;;;15.99;47.66;93707.66;5087735;28;20040;-84
2022/11/14 01:10:40;;;;;;;2.70;2.00;;;;;;;15.94;47.42;93707.63;5058078;28;20455;-84
2022/11/14 01:13:05;;;;;;;2.50;2.28;;;;;;;15.96;47.73;93697.72;5089282;28;20502;-85
2022/11/14 01:15:30;;;;;;;3.30;2.55;;;;;;;15.96;47.43;93707.88;5097214;28;20040;-84
2022/11/14 01:17:56;;;;;;;2.22;1.85;;;;;;;15.96;47.52;93708.63;5091453;28;20035;-84
2022/11/14 01:20:21;;;;;;;2.60;2.38;;;;;;;15.96;47.73;93708.63;5102575;28;20040;-84
2022/11/14 01:22:47;;;;;;;2.50;2.00;;;;;;;15.97;47.34;93714.84;5070486;28;20455;-84
2022/11/14 01:25:15;;;;;;;2.40;2.03;;;;;;;15.96;47.33;93696.97;5082133;28;20063;-84
2022/11/14 01:27:40;;;;;;;2.30;2.05;;;;;;;15.96;47.57;93684.09;5074633;28;20482;-84
2022/11/14 01:30:06;;;;;;;3.00;2.00;;;;;;;15.95;47.51;93685.31;5070191;28;20043;-84
2022/11/14 01:32:31;;;;;;;3.13;2.42;;;;;;;15.95;47.64;93688.06;5087480;28;20043;-84
2022/11/14 01:34:57;;;;;;;2.35;2.00;;;;;;;15.95;47.64;93690.78;5076135;28;20025;-84
2022/11/14 01:37:22;;;;;;;2.38;1.90;;;;;;;15.94;47.83;93689.28;5053714;28;20062;-83
2022/11/14 01:39:48;;;;;;;3.15;2.30;;;;;;;15.94;47.45;93683.09;5081929;28;20036;-84
2022/11/14 01:42:13;;;;;;;3.00;2.17;;;;;;;15.95;47.60;93677.16;5086157;28;20062;-84
2022/11/14 01:44:48;;;;;;;2.65;2.33;;;;;;;15.95;47.42;93684.59;5090812;28;20032;-85
2022/11/14 01:47:17;;;;;;;2.95;2.35;;;;;;;15.94;47.58;93661.28;5108470;28;20070;-84
2022/11/14 01:49:44;;;;;;;2.55;2.35;;;;;;;15.95;47.59;93660.03;5091028;28;20073;-84
2022/11/14 01:52:13;;;;;;;2.67;2.05;;;;;;;15.93;47.79;93641.44;5085479;28;20032;-84
2022/11/14 01:54:40;;;;;;;2.38;2.03;;;;;;;15.91;47.69;93643.91;5053722;28;20157;-84
2022/11/14 01:57:06;;;;;;;3.30;2.10;;;;;;;15.93;47.64;93635.25;5069873;28;20055;-84
2022/11/14 01:59:36;;;;;;;2.75;2.10;;;;;;;15.94;47.46;93642.94;5070220;28;20036;-84
2022/11/14 02:02:05;;;;;;;2.55;2.25;;;;;;;15.94;47.72;93644.91;5086393;28;20035;-84
2022/11/14 02:04:34;;;;;;;2.65;2.10;;;;;;;15.93;47.51;93638.72;5087180;28;20046;-85
2022/11/14 02:07:00;;;;;;;2.47;2.10;;;;;;;15.92;47.39;93633.75;5069961;28;20067;-84
2022/11/14 02:09:27;;;;;;;2.60;1.95;;;;;;;15.92;47.33;93639.94;5053312;28;20047;-84
2022/11/14 02:11:53;;;;;;;2.70;1.92;;;;;;;15.92;47.51;93642.69;5084846;28;20122;-85
2022/11/14 02:14:21;;;;;;;2.65;2.15;;;;;;;15.94;47.34;93639.47;5072172;28;20046;-85
2022/11/14 02:16:47;;;;;;;2.67;2.17;;;;;;;15.93;47.38;93638.72;5082674;28;20122;-84
2022/11/14 02:19:13;;;;;;;2.97;2.08;;;;;;;15.93;47.47;93629.78;5059554;28;20037;-85
2022/11/14 02:21:39;;;;;;;2.45;1.95;;;;;;;15.93;47.63;93616.16;5082184;28;20142;-85
2022/11/14 02:24:08;;;;;;;3.17;2.30;;;;;;;15.92;47.41;93606.50;5090168;28;20040;-84
2022/11/14 02:26:34;;;;;;;3.35;2.30;;;;;;;15.93;47.63;93608.72;5097963;28;20043;-84
2022/11/14 02:28:59;;;;;;;2.38;2.10;;;;;;;15.92;47.58;93609.97;5073997;28;20043;-84
2022/11/14 02:31:24;;;;;;;2.20;1.92;;;;;;;15.95;47.84;93610.97;5079347;28;20520;-84
2022/11/14 02:33:50;;;;;;;2.30;1.77;;;;;;;15.93;47.70;93607.97;5052891;28;20183;-84
2022/11/14 02:36:15;;;;;;;3.90;2.40;;;;;;;15.93;47.45;93595.09;5077611;28;20035;-84
2022/11/14 02:38:41;;;;;;;3.03;1.98;;;;;;;15.95;47.70;93600.06;5084292;28;20032;-84
2022/11/14 02:41:06;;;;;;;2.05;1.85;;;;;;;15.91;47.48;93589.38;5075767;28;20048;-84
2022/11/14 02:43:31;;;;;;;2.35;2.00;;;;;;;15.94;47.54;93593.13;5107183;28;20093;-84
2022/11/14 02:45:57;;;;;;;3.25;2.20;;;;;;;15.92;47.66;93595.59;5106931;28;20028;-84
2022/11/14 02:48:22;;;;;;;2.88;1.70;;;;;;;15.93;47.71;93592.38;5089224;28;20039;-84
2022/11/14 02:50:48;;;;;;;2.15;1.88;;;;;;;15.91;47.62;93586.66;5105299;28;20061;-84
2022/11/14 02:53:13;;;;;;;2.42;1.75;;;;;;;15.92;47.59;93590.13;5089261;28;20042;-84
2022/11/14 02:55:39;;;;;;;2.33;2.00;;;;;;;15.91;47.90;93594.09;5089923;28;20501;-84
2022/11/14 02:58:04;;;;;;;2.42;2.22;;;;;;;15.91;47.61;93600.28;5106658;28;20036;-84
2022/11/14 03:00:29;;;;;;;2.17;1.73;;;;;;;15.90;47.59;93593.34;5089046;28;20028;-84
2022/11/14 03:02:55;;;;;;;2.67;2.08;;;;;;;15.91;47.68;93591.38;5068583;28;20047;-84
2022/11/14 03:05:20;;;;;;;2.13;1.92;;;;;;;15.93;47.30;93581.47;5068971;28;20406;-84
2022/11/14 03:07:46;;;;;;;2.13;1.70;;;;;;;15.93;47.46;93583.44;5068482;28;20044;-84
2022/11/14 03:10:12;;;;;;;2.15;1.90;;;;;;;15.92;47.66;93576.50;5052348;28;20047;-84
2022/11/14 03:12:38;;;;;;;2.72;2.03;;;;;;;15.92;47.78;93579.97;5083463;28;20050;-84
2022/11/14 03:15:04;;;;;;;3.67;2.20;;;;;;;15.91;47.68;93585.91;5074511;28;20367;-84
2022/11/14 03:17:31;;;;;;;2.15;1.95;;;;;;;15.92;47.51;93590.13;5101219;28;20403;-84
2022/11/14 03:19:56;;;;;;;3.95;2.28;;;;;;;15.91;47.59;93585.91;5053170;28;20510;-84
2022/11/14 03:22:22;;;;;;;2.55;1.85;;;;;;;15.91;47.85;93592.13;5080858;28;20062;-84
2022/11/14 03:24:48;;;;;;;2.45;1.92;;;;;;;15.90;47.55;93573.53;5086210;28;20089;-84
2022/11/14 03:27:13;;;;;;;2.42;2.10;;;;;;;15.92;47.62;93584.69;5099353;28;20054;-85
2022/11/14 03:29:38;;;;;;;2.90;2.08;;;;;;;15.91;47.68;93577.75;5106624;28;20480;-84
2022/11/14 03:32:04;;;;;;;2.33;1.88;;;;;;;15.91;47.58;93589.38;5068860;28;20465;-84
2022/11/14 03:34:30;;;;;;;2.70;1.75;;;;;;;15.92;47.53;93579.97;5085786;28;20056;-84
2022/11/14 03:36:56;;;;;;;2.75;2.13;;;;;;;15.89;47.76;93589.13;5072120;28;20122;-84
2022/11/14 03:39:21;;;;;;;2.40;1.90;;;;;;;15.91;47.39;93585.91;5080929;28;20044;-85
2022/11/14 03:41:46;;;;;;;2.53;2.00;;;;;;;15.91;47.27;93577.75;5082149;28;20044;-84
2022/11/14 03:44:12;;;;;;;2.13;1.92;;;;;;;15.93;47.45;93575.28;5092818;28;20032;-83
2022/11/14 03:46:37;;;;;;;3.13;1.85;;;;;;;15.92;47.80;93576.50;5092757;28;20047;-84
2022/11/14 03:49:03;;;;;;;2.42;1.85;;;;;;;15.90;47.72;93579.72;5072022;28;20059;-84
2022/11/14 03:51:28;;;;;;;2.33;1.95;;;;;;;15.90;47.81;93581.69;5089737;28;20032;-85
2022/11/14 03:53:53;;;;;;;2.13;1.85;;;;;;;15.90;47.53;93582.44;5089608;28;20040;-84
2022/11/14 03:56:19;;;;;;;2.20;1.85;;;;;;;15.90;47.82;93576.25;5056921;28;20040;-84
2022/11/14 03:58:44;;;;;;;2.67;2.10;;;;;;;15.88;47.58;93576.72;5072425;28;20093;-84
2022/11/14 04:01:11;;;;;;;2.20;1.83;;;;;;;15.90;47.33;93574.25;5091767;28;20045;-85
2022/11/14 04:03:37;;;;;;;2.50;2.00;;;;;;;15.93;47.70;93558.91;5071879;28;20056;-84
2022/11/14 04:06:03;;;;;;;1.70;1.60;;;;;;;15.90;47.52;93557.16;5055847;28;20063;-85
2022/11/14 04:08:28;;;;;;;3.10;2.15;;;;;;;15.90;47.49;93560.63;5082345;28;20513;-85
2022/11/14 04:10:54;;;;;;;2.90;1.95;;;;;;;15.87;47.48;93542.53;5109282;28;20040;-85
2022/11/14 04:13:19;;;;;;;2.28;2.08;;;;;;;15.88;47.49;93535.09;5092178;28;20512;-85
2022/11/14 04:15:45;;;;;;;2.60;1.70;;;;;;;15.89;47.76;93544.75;5110336;28;20028;-85
2022/11/14 04:18:10;;;;;;;2.08;1.73;;;;;;;15.88;47.67;93532.38;5090322;28;20043;-84
2022/11/14 04:20:35;;;;;;;2.38;1.80;;;;;;;15.89;47.41;93536.59;5055704;28;20506;-84
2022/11/14 04:23:01;;;;;;;2.33;1.85;;;;;;;15.88;47.40;93519.50;5086318;28;20050;-84
2022/11/14 04:25:26;;;;;;;2.40;2.00;;;;;;;15.91;47.65;93528.66;5071729;28;20752;-84
2022/11/14 04:27:52;;;;;;;2.78;1.92;;;;;;;15.88;47.54;93535.84;5096662;28;20055;-84
2022/11/14 04:30:17;;;;;;;2.08;1.65;;;;;;;15.88;47.81;93535.09;5108882;28;20448;-84
2022/11/14 04:32:44;;;;;;;1.92;1.50;;;;;;;15.89;47.56;93529.16;5108635;28;20281;-84
2022/11/14 04:35:10;;;;;;;2.03;1.58;;;;;;;15.88;47.54;93519.50;5091780;28;20055;-84
2022/11/14 04:37:37;;;;;;;1.85;1.65;;;;;;;15.89;47.59;93523.69;5092541;28;20040;-84
2022/11/14 04:40:03;;;;;;;2.20;1.88;;;;;;;15.87;47.71;93520.72;5068951;28;20059;-84
2022/11/14 04:42:28;;;;;;;1.70;1.55;;;;;;;15.89;47.62;93518.25;5075379;28;20072;-83
2022/11/14 04:44:55;;;;;;;3.42;1.67;;;;;;;15.90;47.65;93521.72;5050380;28;20115;-83
2022/11/14 04:47:20;;;;;;;2.90;1.77;;;;;;;15.87;47.67;93522.69;5060181;28;20515;-81
2022/11/14 04:49:46;;;;;;;2.50;2.10;;;;;;;15.89;47.53;93518.25;5069445;28;20040;-84
2022/11/14 04:52:11;;;;;;;3.75;1.80;;;;;;;15.87;47.38;93518.00;5054074;28;20048;-86
2022/11/14 04:54:36;;;;;;;2.17;1.80;;;;;;;15.92;47.61;93519.25;5036803;28;20036;-83
2022/11/14 04:57:02;;;;;;;2.45;1.83;;;;;;;15.95;47.39;93521.75;5053392;28;20454;-83
2022/11/14 04:59:27;;;;;;;2.40;2.00;;;;;;;15.91;47.27;93528.66;5069042;28;20051;-83
2022/11/14 05:01:52;;;;;;;2.33;1.63;;;;;;;15.93;47.26;93535.13;5052522;28;20089;-83
2022/11/14 05:04:18;;;;;;;2.67;2.00;;;;;;;15.90;47.58;93532.63;5048672;28;20602;-84
2022/11/14 05:06:44;;;;;;;5.10;2.03;;;;;;;15.90;47.24;93538.81;5069806;28;20474;-83
2022/11/14 05:09:09;;;;;;;2.30;1.60;;;;;;;15.89;47.50;93529.16;5051265;28;20135;-83
2022/11/14 05:11:34;;;;;;;3.47;1.95;;;;;;;15.89;47.54;93514.78;5049101;28;20032;-85
2022/11/14 05:14:00;;;;;;;3.45;1.70;;;;;;;15.87;47.43;93520.72;5072402;28;20024;-85
2022/11/14 05:16:25;;;;;;;2.13;1.75;;;;;;;15.88;47.50;93524.19;5069798;28;20599;-85
2022/11/14 05:18:52;;;;;;;2.22;1.58;;;;;;;15.88;47.57;93524.19;5078246;28;20036;-84
2022/11/14 05:21:18;;;;;;;2.67;1.92;;;;;;;15.92;47.45;93522.72;5070862;28;20148;-84
2022/11/14 05:23:43;;;;;;;4.35;1.80;;;;;;;15.88;47.46;93514.03;5074331;28;20052;-84
2022/11/14 05:26:11;;;;;;;2.53;1.75;;;;;;;15.92;47.65;93524.69;5100217;27;20490;-84
2022/11/14 05:28:37;;;;;;;29.52;20.10;;;;;;;15.93;47.78;93534.38;5078638;28;20502;-84
2022/11/14 05:31:06;;;;;;;19.25;9.48;;;;;;;15.95;47.35;93524.47;5062754;27;20063;-84
2022/11/14 05:33:32;;;;;;;59.67;18.83;;;;;;;15.95;48.01;93531.91;5075182;28;20032;-84
2022/11/14 05:36:07;;;;;;;154.68;122.65;;;;;;;15.99;47.82;93543.31;5065551;28;20199;-84
2022/11/14 05:38:32;;;;;;;54.00;31.13;;;;;;;16.00;47.56;93540.09;5084757;28;20048;-85
2022/11/14 05:40:58;;;;;;;27.20;16.27;;;;;;;16.02;47.24;93539.63;5086643;28;20040;-86
2022/11/14 05:43:23;;;;;;;36.90;21.38;;;;;;;16.07;47.39;93525.97;5066465;28;20708;-86
2022/11/14 05:45:49;;;;;;;30.75;12.82;;;;;;;16.08;47.76;93522.00;5082103;28;20104;-86
2022/11/14 05:48:14;;;;;;;33.83;15.57;;;;;;;16.10;47.48;93527.72;5063415;28;20040;-86
2022/11/14 05:50:40;;;;;;;27.75;13.73;;;;;;;16.11;47.52;93531.94;5070127;27;20402;-88
2022/11/14 05:53:05;;;;;;;36.42;17.17;;;;;;;16.09;47.78;93520.03;5083428;28;20059;-85
2022/11/14 05:55:31;;;;;;;63.67;20.23;;;;;;;16.10;47.36;93532.44;5100313;28;20117;-87
2022/11/14 05:57:57;;;;;;;44.25;17.95;;;;;;;16.11;46.96;93529.22;5070519;28;20036;-89
2022/11/14 06:00:23;;;;;;;32.63;17.55;;;;;;;16.09;47.20;93530.94;5092370;28;20040;-88
2022/11/14 06:02:52;;;;;;;38.80;18.17;;;;;;;16.10;47.02;93526.97;5078672;28;20046;-87
2022/11/14 06:05:17;;;;;;;66.82;23.05;;;;;;;16.05;46.68;93514.06;5060526;28;20036;-87
2022/11/14 06:07:43;;;;;;;78.60;36.88;;;;;;;16.04;46.99;93518.78;5058658;28;20154;-84
2022/11/14 06:10:08;;;;;;;76.97;36.97;;;;;;;16.08;46.95;93507.63;5088640;28;22488;-87
2022/11/14 06:12:35;;;;;;;95.32;45.83;;;;;;;16.06;46.44;93519.03;5070191;28;20130;-87
2022/11/14 06:15:00;;;;;;;124.63;48.67;;;;;;;16.06;46.90;93510.84;5077972;28;20050;-85
2022/11/14 06:17:26;;;;;;;86.20;34.50;;;;;;;16.05;46.78;93505.88;5079344;28;20036;-88
2022/11/14 06:19:58;;;;;;;87.75;39.58;;;;;;;16.05;47.33;93495.72;5088225;28;20051;-89
2022/11/14 06:22:23;;;;;;;96.32;39.65;;;;;;;16.10;47.22;93516.06;5098268;28;20097;-87
2022/11/14 06:24:49;;;;;;;101.75;53.35;;;;;;;16.10;47.22;93518.78;5087273;28;20040;-86
2022/11/14 06:27:15;;;;;;;87.65;37.28;;;;;;;16.15;47.54;93517.31;5068582;28;20105;-86
2022/11/14 06:29:40;;;;;;;126.45;62.60;;;;;;;16.09;47.14;93507.13;5077733;28;20043;-86
2022/11/14 06:32:06;;;;;;;130.13;54.15;;;;;;;16.09;47.30;93518.06;5063899;28;20425;-85
2022/11/14 06:34:31;;;;;;;180.13;60.90;;;;;;;16.13;47.47;93520.53;5107735;28;20043;-85
2022/11/14 06:36:56;;;;;;;308.60;94.50;;;;;;;16.09;47.53;93522.75;5068709;28;20062;-87
2022/11/14 06:39:22;;;;;;;189.18;72.80;;;;;;;16.09;47.33;93523.50;5079752;28;20071;-86
2022/11/14 06:41:47;;;;;;;165.77;63.55;;;;;;;16.11;47.76;93507.41;5089490;28;20527;-87
2022/11/14 06:44:13;;;;;;;223.00;109.32;;;;;;;16.11;47.43;93518.31;5071354;28;20449;-87
2022/11/14 06:46:39;;;;;;;209.52;82.28;;;;;;;16.11;46.60;93531.19;5068285;28;20044;-87
2022/11/14 06:49:05;;;;;;;191.85;84.30;;;;;;;16.09;46.76;93539.88;5080145;28;20048;-86
2022/11/14 06:51:30;;;;;;;171.40;89.20;;;;;;;16.10;46.87;93544.09;5090416;28;20039;-85
2022/11/14 06:53:56;;;;;;;199.00;96.88;;;;;;;16.13;47.20;93539.63;5086719;28;20039;-86
2022/11/14 06:56:22;;;;;;;224.40;113.20;;;;;;;16.11;46.27;93542.09;5083991;28;20096;-86
2022/11/14 06:58:48;;;;;;;227.27;112.32;;;;;;;16.15;46.91;93534.44;5085837;28;20060;-90
2022/11/14 07:01:14;;;;;;;260.35;123.22;;;;;;;16.17;46.69;93537.41;5106280;28;20573;-86
2022/11/14 07:03:40;;;;;;;304.80;149.98;;;;;;;16.21;47.29;93545.34;5076770;28;20435;-86
2022/11/14 07:06:07;;;;;;;327.42;168.65;;;;;;;16.27;47.50;93546.09;5066297;28;20069;-85
2022/11/14 07:08:33;;;;;;;297.05;146.80;;;;;;;16.30;47.27;93551.31;5082294;28;20039;-86
2022/11/14 07:11:07;;;;;;;314.17;172.10;;;;;;;16.35;47.22;93545.13;5087625;28;20036;-85
2022/11/14 07:13:34;;;;;;;294.58;153.73;;;;;;;16.41;47.13;93539.69;5107826;28;20043;-89
2022/11/14 07:16:04;;;;;;;276.23;153.30;;;;;;;16.46;47.40;93547.84;5092657;28;20120;-88
2022/11/14 07:18:30;;;;;;;244.32;131.52;;;;;;;16.48;46.82;93549.34;5019791;28;20094;-88
2022/11/14 07:21:00;;;;;;;246.70;137.27;;;;;;;16.54;47.30;93533.72;5038605;28;20044;-87
2022/11/14 07:23:25;;;;;;;220.60;123.20;;;;;;;16.52;46.77;93545.13;5032263;28;20052;-86
2022/11/14 07:25:51;;;;;;;194.77;110.07;;;;;;;16.51;47.11;93549.09;5033921;28;20127;-83
2022/11/14 07:28:16;;;;;;;211.07;119.75;;;;;;;16.50;46.82;93555.06;5046299;28;20040;-85
2022/11/14 07:30:41;;;;;;;214.90;116.57;;;;;;;16.51;46.83;93551.09;5034587;28;20428;-86
2022/11/14 07:33:07;;;;;;;270.98;149.52;;;;;;;16.49;47.03;93540.66;5048830;28;20040;-85
2022/11/14 07:35:32;;;;;;;248.98;136.25;;;;;;;16.50;46.95;93553.06;5036997;28;20120;-86
2022/11/14 07:38:01;;;;;;;272.23;143.82;;;;;;;16.49;47.00;93540.66;5029776;28;20455;-84
2022/11/14 07:40:27;;;;;;;281.92;151.45;;;;;;;16.47;46.87;93537.69;5032312;28;20068;-85
2022/11/14 07:42:57;;;;;;;298.88;141.65;;;;;;;16.45;47.42;93549.09;5046588;28;20466;-86
2022/11/14 07:45:22;;;;;;;299.92;142.35;;;;;;;16.47;47.13;93545.88;5018739;28;21060;-85
2022/11/14 07:47:48;;;;;;;295.27;142.05;;;;;;;16.46;47.18;93549.84;5019419;28;20110;-85
2022/11/14 07:50:13;;;;;;;284.15;140.05;;;;;;;16.46;47.40;93542.41;5083140;28;20590;-85
2022/11/14 07:52:39;;;;;;;277.45;147.63;;;;;;;16.46;47.18;93542.41;5038412;28;20045;-86
2022/11/14 07:55:05;;;;;;;318.33;164.70;;;;;;;16.46;46.91;93538.91;5026969;28;20056;-86
2022/11/14 07:57:30;;;;;;;279.98;141.70;;;;;;;16.49;47.83;93534.47;5043804;28;20037;-86
2022/11/14 07:59:56;;;;;;;283.50;156.25;;;;;;;16.46;47.20;93538.91;5046950;28;20127;-85
2022/11/14 08:02:21;;;;;;;289.38;159.38;;;;;;;16.46;47.35;93544.38;5043446;28;20468;-86
2022/11/14 08:04:46;;;;;;;295.52;161.45;;;;;;;16.44;47.34;93544.91;5067258;28;20071;-87
2022/11/14 08:07:12;;;;;;;265.95;144.57;;;;;;;16.49;47.58;93548.09;5033632;28;20670;-85
2022/11/14 08:09:37;;;;;;;285.33;139.35;;;;;;;16.50;47.06;93547.63;5049952;28;20048;-85
2022/11/14 08:12:03;;;;;;;313.52;150.35;;;;;;;16.50;47.09;93549.59;5066599;28;20450;-88
2022/11/14 08:14:29;;;;;;;311.52;145.35;;;;;;;16.47;47.06;93540.41;5032450;28;20044;-85
2022/11/14 08:16:54;;;;;;;246.93;129.15;;;;;;;16.49;46.98;93550.84;5033133;28;20040;-86
2022/11/14 08:19:20;;;;;;;217.13;115.28;;;;;;;16.48;47.11;93541.91;5034794;28;20055;-86
2022/11/14 08:21:45;;;;;;;237.20;127.30;;;;;;;16.47;47.12;93540.41;5032375;28;20080;-85
2022/11/14 08:24:10;;;;;;;212.55;107.65;;;;;;;16.49;47.78;93543.41;5025322;28;20040;-84
2022/11/14 08:26:36;;;;;;;213.85;111.78;;;;;;;16.52;48.05;93526.03;5046214;28;20227;-86
2022/11/14 08:29:01;;;;;;;244.15;135.27;;;;;;;16.54;47.29;93531.75;5015587;28;20106;-84
2022/11/14 08:31:27;;;;;;;237.13;125.10;;;;;;;16.52;47.34;93519.84;5037407;28;20523;-84
2022/11/14 08:33:52;;;;;;;250.13;128.48;;;;;;;16.52;47.08;93519.84;5003718;28;20036;-85
2022/11/14 08:36:18;;;;;;;251.82;122.97;;;;;;;16.50;47.36;93523.06;4998485;28;20037;-82
2022/11/14 08:38:43;;;;;;;257.90;123.15;;;;;;;16.52;47.35;93528.03;5018368;28;20045;-87
2022/11/14 08:41:09;;;;;;;182.68;99.20;;;;;;;16.53;46.49;93521.31;5047612;28;20490;-86
2022/11/14 08:43:34;;;;;;;131.50;67.78;;;;;;;16.50;45.81;93520.31;5019080;28;20045;-84
2022/11/14 08:46:01;;;;;;;166.27;75.70;;;;;;;16.49;45.91;93523.56;5056055;28;20071;-84
2022/11/14 08:48:27;;;;;;;192.75;86.35;;;;;;;16.52;46.15;93517.09;5032154;28;20040;-85
2022/11/14 08:50:52;;;;;;;187.75;85.45;;;;;;;16.52;46.48;93519.84;5037341;28;20037;-84
2022/11/14 08:53:18;;;;;;;162.90;80.88;;;;;;;16.51;47.01;93527.28;5065628;28;20463;-85
2022/11/14 08:55:46;;;;;;;160.60;77.00;;;;;;;16.52;46.84;93525.28;5020047;28;20041;-86
2022/11/14 08:58:12;;;;;;;160.73;76.63;;;;;;;16.51;46.47;93524.53;5056200;28;20152;-82
2022/11/14 09:00:38;;;;;;;197.35;88.53;;;;;;;16.53;46.40;93529.50;5020226;28;20047;-85
2022/11/14 09:03:12;;;;;;;168.52;78.47;;;;;;;16.51;46.82;93519.09;5075095;28;20597;-86
2022/11/14 09:05:38;;;;;;;124.85;61.92;;;;;;;16.57;47.68;93524.56;5094205;28;20040;-90
2022/11/14 09:08:04;;;;;;;168.20;83.63;;;;;;;16.55;47.30;93514.13;5064024;28;20035;-83
2022/11/14 09:10:29;;;;;;;216.43;101.35;;;;;;;16.57;46.45;93522.56;5065080;28;20069;-83
2022/11/14 09:12:59;;;;;;;157.43;79.80;;;;;;;16.59;47.78;93528.28;5081800;28;20516;-84
2022/11/14 09:15:28;;;;;;;228.27;103.60;;;;;;;16.58;46.47;93523.31;5089048;28;20123;-83
2022/11/14 09:17:54;;;;;;;223.50;101.13;;;;;;;16.58;47.34;93520.59;5104042;28;20032;-81
2022/11/14 09:20:20;;;;;;;220.40;97.82;;;;;;;16.59;46.52;93516.63;5086826;28;20096;-84
2022/11/14 09:22:46;;;;;;;225.18;95.00;;;;;;;16.59;47.00;93522.81;5086247;28;20039;-81
2022/11/14 09:25:12;;;;;;;197.55;85.97;;;;;;;16.62;47.08;93521.09;5086927;28;20044;-80
2022/11/14 09:27:37;;;;;;;178.07;78.53;;;;;;;16.61;47.53;93514.16;5083351;28;20044;-83
2022/11/14 09:30:04;;;;;;;165.93;82.10;;;;;;;16.60;46.99;93513.41;5077592;28;20040;-84
2022/11/14 09:32:29;;;;;;;161.10;72.55;;;;;;;16.63;47.20;93509.72;5076253;28;20047;-88
2022/11/14 09:34:55;;;;;;;183.07;88.32;;;;;;;16.64;46.91;93518.66;5065373;28;20413;-85
2022/11/14 09:37:20;;;;;;;157.00;73.47;;;;;;;16.59;45.49;93514.63;5072501;28;20071;-83
2022/11/14 09:39:46;;;;;;;98.32;44.80;;;;;;;16.60;45.96;93510.66;5099679;28;20040;-84
2022/11/14 09:42:14;;;;;;;81.35;36.97;;;;;;;16.62;44.42;93508.19;5068354;28;20040;-87
2022/11/14 09:44:43;;;;;;;92.15;40.30;;;;;;;16.58;44.96;93504.97;5100678;28;20112;-86
2022/11/14 09:47:16;;;;;;;79.10;35.63;;;;;;;16.55;44.17;93499.75;5091689;28;20051;-84
2022/11/14 09:49:44;;;;;;;70.32;33.03;;;;;;;16.52;44.53;93492.53;5095085;27;20040;-85
2022/11/14 09:52:33;;;;;;;72.80;35.08;;;;;;;16.51;44.56;93499.25;5071285;28;20717;-89
2022/11/14 09:55:15;;;;;;;89.50;33.53;;;;;;;16.55;45.59;93486.84;5076665;28;20046;-85
2022/11/14 09:57:41;;;;;;;82.85;34.42;;;;;;;16.50;43.73;93487.59;5083133;28;20032;-84
2022/11/14 10:00:17;;;;;;;93.07;42.20;;;;;;;16.49;43.61;93488.06;5086983;28;20036;-84
2022/11/14 10:03:06;;;;;;;111.05;38.83;;;;;;;16.48;44.08;93481.13;5107417;28;20036;-87
2022/11/14 10:05:46;;;;;;;94.85;34.55;;;;;;;16.48;43.52;93481.88;5094565;28;20036;-83
2022/11/14 10:08:27;;;;;;;100.47;32.03;;;;;;;16.49;43.45;93469.72;5080385;28;20032;-84
2022/11/14 10:10:54;;;;;;;95.82;31.50;;;;;;;16.48;42.90;93481.88;5101124;28;20067;-83
2022/11/14 10:13:32;;;;;;;107.90;33.15;;;;;;;16.43;43.52;93491.56;5084317;28;20039;-85
2022/11/14 10:16:38;;;;;;;74.95;23.80;;;;;;;16.44;43.06;93482.16;5098156;28;20130;-84
2022/11/14 10:19:25;;;;;;;70.25;29.30;;;;;;;16.44;43.51;93486.88;5096658;28;20052;-88
2022/11/14 10:22:02;;;;;;;82.70;35.83;;;;;;;16.43;42.55;93491.56;5097534;28;20394;-85
2022/11/14 10:24:53;;;;;;;79.07;28.55;;;;;;;16.41;42.91;93488.59;5096244;27;20036;-85
2022/11/14 10:27:24;;;;;;;77.05;33.88;;;;;;;16.39;42.82;93480.16;5092715;28;20715;-84
2022/11/14 10:30:05;;;;;;;98.78;39.33;;;;;;;16.40;42.87;93483.63;5064594;28;20153;-84
2022/11/14 10:33:09;;;;;;;88.45;40.30;;;;;;;16.41;42.83;93474.22;5102748;28;20068;-83
2022/11/14 10:35:43;;;;;;;86.13;44.50;;;;;;;16.45;43.79;93477.44;5092208;28;20059;-84
2022/11/14 10:38:15;;;;;;;92.03;44.88;;;;;;;16.41;42.89;93474.22;5084582;28;20097;-82
2022/11/14 10:40:43;;;;;;;87.13;40.83;;;;;;;16.43;42.57;93479.91;5098813;27;20044;-84
2022/11/14 10:43:30;;;;;;;94.35;41.85;;;;;;;16.41;42.69;93468.75;5096184;28;20088;-83
2022/11/14 10:46:00;;;;;;;113.20;47.28;;;;;;;16.39;42.57;93466.50;5104326;28;20074;-87
2022/11/14 10:48:33;;;;;;;122.85;50.75;;;;;;;16.39;42.99;93471.97;5070850;28;20533;-83
2022/11/14 10:51:13;;;;;;;105.38;47.10;;;;;;;16.41;42.98;93469.50;5083727;28;20127;-87
2022/11/14 10:53:54;;;;;;;109.40;45.00;;;;;;;16.41;42.76;93455.84;5081953;28;20050;-86
2022/11/14 10:56:20;;;;;;;84.20;36.70;;;;;;;16.39;42.33;93461.06;5071362;28;20070;-83
2022/11/14 10:58:45;;;;;;;75.25;37.95;;;;;;;16.39;43.21;93460.31;5099069;28;20066;-87
2022/11/14 11:01:36;;;;;;;145.02;41.42;;;;;;;16.38;42.82;93465.03;5086669;28;20048;-86
2022/11/14 11:04:14;;;;;;;129.52;40.15;;;;;;;16.38;43.22;93456.09;5080823;28;20036;-88
2022/11/14 11:06:40;;;;;;;77.57;35.20;;;;;;;16.39;43.61;93458.31;5073608;28;20029;-84
2022/11/14 11:11:57;;;;;;;62.45;32.45;;;;;;;16.35;43.05;93457.09;5089028;28;20105;-87
2022/11/14 11:14:22;;;;;;;65.43;34.78;;;;;;;16.35;42.30;93448.91;5097668;28;20052;-85
2022/11/14 11:16:48;;;;;;;252.93;203.02;;;;;;;16.35;43.06;93454.34;5059373;28;20399;-85
2022/11/14 11:19:24;;;;;;;98.25;51.83;;;;;;;16.39;43.23;93454.84;5067907;28;20494;-86
2022/11/14 11:21:51;;;;;;;64.78;36.92;;;;;;;16.37;42.78;93458.06;5092588;28;20028;-85
2022/11/14 11:24:34;;;;;;;65.80;33.45;;;;;;;16.35;43.38;93457.09;5092164;28;20101;-85